sensor_id;sensor_type;location;lat;lon;timestamp;P1;P2;P0
43280;PMS5003;62175;49.416;8.690;2023-04-25T00:01:10;7;7;
43280;PMS5003;62175;49.416;8.690;2023-04-25T00:03:37;10;8;
43280;PMS5003;62175;49.416;8.690;2023-04-25T00:06:05;8;7;
43280;PMS5003;62175;49.416;8.690;2023-04-25T00:08:32;11;10;
43280;PMS5003;62175;49.416;8.690;2023-04-25T00:11:00;9;8;
43280;PMS5003;62175;49.416;8.690;2023-04-25T00:13:27;7;7;
43280;PMS5003;62175;49.416;8.690;2023-04-25T00:15:54;9;9;
43280;PMS5003;62175;49.416;8.690;2023-04-25T00:18:21;9;9;
43280;PMS5003;62175;49.416;8.690;2023-04-25T00:20:48;11;9;
43280;PMS5003;62175;49.416;8.690;2023-04-25T00:23:15;11;11;
43280;PMS5003;62175;49.416;8.690;2023-04-25T00:25:43;10;8;
43280;PMS5003;62175;49.416;8.690;2023-04-25T00:28:11;7;6;
43280;PMS5003;62175;49.416;8.690;2023-04-25T00:30:39;9;8;
43280;PMS5003;62175;49.416;8.690;2023-04-25T00:33:07;8;7;
43280;PMS5003;62175;49.416;8.690;2023-04-25T00:35:34;8;7;
43280;PMS5003;62175;49.416;8.690;2023-04-25T00:38:01;9;9;
43280;PMS5003;62175;49.416;8.690;2023-04-25T00:40:28;10;9;
43280;PMS5003;62175;49.416;8.690;2023-04-25T00:42:56;7;6;
43280;PMS5003;62175;49.416;8.690;2023-04-25T00:45:23;7;6;
43280;PMS5003;62175;49.416;8.690;2023-04-25T00:47:54;8;8;
43280;PMS5003;62175;49.416;8.690;2023-04-25T00:50:22;6;6;
43280;PMS5003;62175;49.416;8.690;2023-04-25T00:52:50;6;6;
43280;PMS5003;62175;49.416;8.690;2023-04-25T00:55:17;9;8;
43280;PMS5003;62175;49.416;8.690;2023-04-25T00:57:46;6;6;
43280;PMS5003;62175;49.416;8.690;2023-04-25T01:00:13;7;7;
43280;PMS5003;62175;49.416;8.690;2023-04-25T01:02:40;9;8;
43280;PMS5003;62175;49.416;8.690;2023-04-25T01:05:07;7;7;
43280;PMS5003;62175;49.416;8.690;2023-04-25T01:07:35;7;6;
43280;PMS5003;62175;49.416;8.690;2023-04-25T01:10:02;10;8;
43280;PMS5003;62175;49.416;8.690;2023-04-25T01:12:30;7;6;
43280;PMS5003;62175;49.416;8.690;2023-04-25T01:14:57;7;6;
43280;PMS5003;62175;49.416;8.690;2023-04-25T01:17:25;7;7;
43280;PMS5003;62175;49.416;8.690;2023-04-25T01:19:52;7;7;
43280;PMS5003;62175;49.416;8.690;2023-04-25T01:22:19;6;5;
43280;PMS5003;62175;49.416;8.690;2023-04-25T01:24:46;7;6;
43280;PMS5003;62175;49.416;8.690;2023-04-25T01:27:13;8;5;
43280;PMS5003;62175;49.416;8.690;2023-04-25T01:29:40;8;7;
43280;PMS5003;62175;49.416;8.690;2023-04-25T01:32:08;7;6;
43280;PMS5003;62175;49.416;8.690;2023-04-25T01:34:37;8;7;
43280;PMS5003;62175;49.416;8.690;2023-04-25T01:37:04;7;7;
43280;PMS5003;62175;49.416;8.690;2023-04-25T01:39:31;9;9;
43280;PMS5003;62175;49.416;8.690;2023-04-25T01:41:58;8;8;
43280;PMS5003;62175;49.416;8.690;2023-04-25T01:44:26;8;8;
43280;PMS5003;62175;49.416;8.690;2023-04-25T01:46:53;7;7;
43280;PMS5003;62175;49.416;8.690;2023-04-25T01:49:21;10;10;
43280;PMS5003;62175;49.416;8.690;2023-04-25T01:51:48;8;8;
43280;PMS5003;62175;49.416;8.690;2023-04-25T01:54:15;7;7;
43280;PMS5003;62175;49.416;8.690;2023-04-25T01:56:43;8;8;
43280;PMS5003;62175;49.416;8.690;2023-04-25T01:59:15;9;9;
43280;PMS5003;62175;49.416;8.690;2023-04-25T02:01:42;9;9;
43280;PMS5003;62175;49.416;8.690;2023-04-25T02:04:09;10;10;
43280;PMS5003;62175;49.416;8.690;2023-04-25T02:06:37;9;7;
43280;PMS5003;62175;49.416;8.690;2023-04-25T02:09:04;10;9;
43280;PMS5003;62175;49.416;8.690;2023-04-25T02:11:31;6;6;
43280;PMS5003;62175;49.416;8.690;2023-04-25T02:13:58;9;9;
43280;PMS5003;62175;49.416;8.690;2023-04-25T02:16:25;10;9;
43280;PMS5003;62175;49.416;8.690;2023-04-25T02:18:52;7;7;
43280;PMS5003;62175;49.416;8.690;2023-04-25T02:21:19;11;9;
43280;PMS5003;62175;49.416;8.690;2023-04-25T02:23:46;10;10;
43280;PMS5003;62175;49.416;8.690;2023-04-25T02:26:13;10;9;
43280;PMS5003;62175;49.416;8.690;2023-04-25T02:28:41;13;11;
43280;PMS5003;62175;49.416;8.690;2023-04-25T02:31:08;11;11;
43280;PMS5003;62175;49.416;8.690;2023-04-25T02:33:35;10;10;
43280;PMS5003;62175;49.416;8.690;2023-04-25T02:36:02;11;11;
43280;PMS5003;62175;49.416;8.690;2023-04-25T02:38:29;9;9;
43280;PMS5003;62175;49.416;8.690;2023-04-25T02:40:56;14;13;
43280;PMS5003;62175;49.416;8.690;2023-04-25T02:43:23;11;10;
43280;PMS5003;62175;49.416;8.690;2023-04-25T02:45:50;13;12;
43280;PMS5003;62175;49.416;8.690;2023-04-25T02:48:18;11;10;
43280;PMS5003;62175;49.416;8.690;2023-04-25T02:50:45;10;10;
43280;PMS5003;62175;49.416;8.690;2023-04-25T02:53:12;11;10;
43280;PMS5003;62175;49.416;8.690;2023-04-25T02:55:39;12;9;
43280;PMS5003;62175;49.416;8.690;2023-04-25T02:58:06;10;9;
43280;PMS5003;62175;49.416;8.690;2023-04-25T03:00:33;12;10;
43280;PMS5003;62175;49.416;8.690;2023-04-25T03:03:00;16;13;
43280;PMS5003;62175;49.416;8.690;2023-04-25T03:05:28;10;9;
43280;PMS5003;62175;49.416;8.690;2023-04-25T03:07:54;13;12;
43280;PMS5003;62175;49.416;8.690;2023-04-25T03:10:22;10;9;
43280;PMS5003;62175;49.416;8.690;2023-04-25T03:12:49;14;12;
43280;PMS5003;62175;49.416;8.690;2023-04-25T03:15:16;12;11;
43280;PMS5003;62175;49.416;8.690;2023-04-25T03:17:43;13;12;
43280;PMS5003;62175;49.416;8.690;2023-04-25T03:20:11;12;11;
43280;PMS5003;62175;49.416;8.690;2023-04-25T03:22:37;10;10;
43280;PMS5003;62175;49.416;8.690;2023-04-25T03:25:05;12;11;
43280;PMS5003;62175;49.416;8.690;2023-04-25T03:27:33;12;11;
43280;PMS5003;62175;49.416;8.690;2023-04-25T03:30:00;13;11;
43280;PMS5003;62175;49.416;8.690;2023-04-25T03:32:27;11;10;
43280;PMS5003;62175;49.416;8.690;2023-04-25T03:34:54;8;8;
43280;PMS5003;62175;49.416;8.690;2023-04-25T03:37:21;12;11;
43280;PMS5003;62175;49.416;8.690;2023-04-25T03:39:48;9;9;
43280;PMS5003;62175;49.416;8.690;2023-04-25T03:42:16;12;11;
43280;PMS5003;62175;49.416;8.690;2023-04-25T03:44:43;13;12;
43280;PMS5003;62175;49.416;8.690;2023-04-25T03:47:10;11;10;
43280;PMS5003;62175;49.416;8.690;2023-04-25T03:49:37;10;10;
43280;PMS5003;62175;49.416;8.690;2023-04-25T03:52:04;14;13;
43280;PMS5003;62175;49.416;8.690;2023-04-25T03:54:31;12;12;
43280;PMS5003;62175;49.416;8.690;2023-04-25T03:56:58;12;11;
43280;PMS5003;62175;49.416;8.690;2023-04-25T03:59:25;11;11;
43280;PMS5003;62175;49.416;8.690;2023-04-25T04:01:52;11;11;
43280;PMS5003;62175;49.416;8.690;2023-04-25T04:04:19;10;10;
43280;PMS5003;62175;49.416;8.690;2023-04-25T04:06:46;12;12;
43280;PMS5003;62175;49.416;8.690;2023-04-25T04:09:13;12;11;
43280;PMS5003;62175;49.416;8.690;2023-04-25T04:11:40;12;11;
43280;PMS5003;62175;49.416;8.690;2023-04-25T04:14:07;10;10;
43280;PMS5003;62175;49.416;8.690;2023-04-25T04:16:35;12;11;
43280;PMS5003;62175;49.416;8.690;2023-04-25T04:19:02;12;11;
43280;PMS5003;62175;49.416;8.690;2023-04-25T04:21:29;11;10;
43280;PMS5003;62175;49.416;8.690;2023-04-25T04:23:56;11;11;
43280;PMS5003;62175;49.416;8.690;2023-04-25T04:26:23;13;12;
43280;PMS5003;62175;49.416;8.690;2023-04-25T04:28:50;11;11;
43280;PMS5003;62175;49.416;8.690;2023-04-25T04:31:17;12;11;
43280;PMS5003;62175;49.416;8.690;2023-04-25T04:33:44;12;12;
43280;PMS5003;62175;49.416;8.690;2023-04-25T04:36:12;11;11;
43280;PMS5003;62175;49.416;8.690;2023-04-25T04:38:39;11;11;
43280;PMS5003;62175;49.416;8.690;2023-04-25T04:41:06;12;12;
43280;PMS5003;62175;49.416;8.690;2023-04-25T04:43:33;13;11;
43280;PMS5003;62175;49.416;8.690;2023-04-25T04:46:00;16;14;
43280;PMS5003;62175;49.416;8.690;2023-04-25T04:48:27;14;11;
43280;PMS5003;62175;49.416;8.690;2023-04-25T04:50:55;19;16;
43280;PMS5003;62175;49.416;8.690;2023-04-25T04:53:22;13;12;
43280;PMS5003;62175;49.416;8.690;2023-04-25T04:55:49;13;13;
43280;PMS5003;62175;49.416;8.690;2023-04-25T04:58:17;14;13;
43280;PMS5003;62175;49.416;8.690;2023-04-25T05:00:44;12;11;
43280;PMS5003;62175;49.416;8.690;2023-04-25T05:03:11;13;12;
43280;PMS5003;62175;49.416;8.690;2023-04-25T05:05:38;13;12;
43280;PMS5003;62175;49.416;8.690;2023-04-25T05:08:05;13;13;
43280;PMS5003;62175;49.416;8.690;2023-04-25T05:10:32;12;12;
43280;PMS5003;62175;49.416;8.690;2023-04-25T05:13:00;13;13;
43280;PMS5003;62175;49.416;8.690;2023-04-25T05:15:27;13;13;
43280;PMS5003;62175;49.416;8.690;2023-04-25T05:17:54;12;12;
43280;PMS5003;62175;49.416;8.690;2023-04-25T05:20:21;12;11;
43280;PMS5003;62175;49.416;8.690;2023-04-25T05:22:48;12;11;
43280;PMS5003;62175;49.416;8.690;2023-04-25T05:25:15;12;11;
43280;PMS5003;62175;49.416;8.690;2023-04-25T05:27:42;13;11;
43280;PMS5003;62175;49.416;8.690;2023-04-25T05:30:10;11;10;
43280;PMS5003;62175;49.416;8.690;2023-04-25T05:32:37;13;12;
43280;PMS5003;62175;49.416;8.690;2023-04-25T05:35:05;11;11;
43280;PMS5003;62175;49.416;8.690;2023-04-25T05:37:33;13;12;
43280;PMS5003;62175;49.416;8.690;2023-04-25T05:40:00;11;11;
43280;PMS5003;62175;49.416;8.690;2023-04-25T05:42:26;11;10;
43280;PMS5003;62175;49.416;8.690;2023-04-25T05:44:53;15;14;
43280;PMS5003;62175;49.416;8.690;2023-04-25T05:47:20;11;10;
43280;PMS5003;62175;49.416;8.690;2023-04-25T05:49:47;11;11;
43280;PMS5003;62175;49.416;8.690;2023-04-25T05:52:14;16;13;
43280;PMS5003;62175;49.416;8.690;2023-04-25T05:54:42;11;10;
43280;PMS5003;62175;49.416;8.690;2023-04-25T05:57:14;16;12;
43280;PMS5003;62175;49.416;8.690;2023-04-25T05:59:46;11;11;
43280;PMS5003;62175;49.416;8.690;2023-04-25T06:02:13;15;12;
43280;PMS5003;62175;49.416;8.690;2023-04-25T06:04:40;14;13;
43280;PMS5003;62175;49.416;8.690;2023-04-25T06:07:07;13;12;
43280;PMS5003;62175;49.416;8.690;2023-04-25T06:09:34;14;13;
43280;PMS5003;62175;49.416;8.690;2023-04-25T06:12:01;14;13;
43280;PMS5003;62175;49.416;8.690;2023-04-25T06:14:28;18;18;
43280;PMS5003;62175;49.416;8.690;2023-04-25T06:16:55;14;14;
43280;PMS5003;62175;49.416;8.690;2023-04-25T06:19:22;18;16;
43280;PMS5003;62175;49.416;8.690;2023-04-25T06:21:49;18;16;
43280;PMS5003;62175;49.416;8.690;2023-04-25T06:24:16;17;17;
43280;PMS5003;62175;49.416;8.690;2023-04-25T06:26:44;15;13;
43280;PMS5003;62175;49.416;8.690;2023-04-25T06:29:11;17;14;
43280;PMS5003;62175;49.416;8.690;2023-04-25T06:31:38;14;13;
43280;PMS5003;62175;49.416;8.690;2023-04-25T06:34:05;17;16;
43280;PMS5003;62175;49.416;8.690;2023-04-25T06:36:31;16;13;
43280;PMS5003;62175;49.416;8.690;2023-04-25T06:38:58;19;18;
43280;PMS5003;62175;49.416;8.690;2023-04-25T06:41:26;17;16;
43280;PMS5003;62175;49.416;8.690;2023-04-25T06:43:53;20;18;
43280;PMS5003;62175;49.416;8.690;2023-04-25T06:46:21;17;16;
43280;PMS5003;62175;49.416;8.690;2023-04-25T06:48:48;21;20;
43280;PMS5003;62175;49.416;8.690;2023-04-25T06:51:16;13;12;
43280;PMS5003;62175;49.416;8.690;2023-04-25T06:53:43;16;14;
43280;PMS5003;62175;49.416;8.690;2023-04-25T06:56:10;13;12;
43280;PMS5003;62175;49.416;8.690;2023-04-25T06:58:37;17;17;
43280;PMS5003;62175;49.416;8.690;2023-04-25T07:01:04;18;16;
43280;PMS5003;62175;49.416;8.690;2023-04-25T07:03:32;17;16;
43280;PMS5003;62175;49.416;8.690;2023-04-25T07:05:59;18;16;
43280;PMS5003;62175;49.416;8.690;2023-04-25T07:08:27;22;19;
43280;PMS5003;62175;49.416;8.690;2023-04-25T07:10:55;17;16;
43280;PMS5003;62175;49.416;8.690;2023-04-25T07:13:22;21;15;
43280;PMS5003;62175;49.416;8.690;2023-04-25T07:15:50;19;17;
43280;PMS5003;62175;49.416;8.690;2023-04-25T07:18:18;18;17;
43280;PMS5003;62175;49.416;8.690;2023-04-25T07:20:45;18;16;
43280;PMS5003;62175;49.416;8.690;2023-04-25T07:23:12;19;16;
43280;PMS5003;62175;49.416;8.690;2023-04-25T07:25:39;19;15;
43280;PMS5003;62175;49.416;8.690;2023-04-25T07:28:06;21;19;
43280;PMS5003;62175;49.416;8.690;2023-04-25T07:30:33;17;16;
43280;PMS5003;62175;49.416;8.690;2023-04-25T07:33:00;27;21;
43280;PMS5003;62175;49.416;8.690;2023-04-25T07:35:28;17;15;
43280;PMS5003;62175;49.416;8.690;2023-04-25T07:37:55;15;15;
43280;PMS5003;62175;49.416;8.690;2023-04-25T07:40:22;17;15;
43280;PMS5003;62175;49.416;8.690;2023-04-25T07:42:50;18;18;
43280;PMS5003;62175;49.416;8.690;2023-04-25T07:45:17;15;14;
43280;PMS5003;62175;49.416;8.690;2023-04-25T07:47:43;18;17;
43280;PMS5003;62175;49.416;8.690;2023-04-25T07:50:10;13;12;
43280;PMS5003;62175;49.416;8.690;2023-04-25T07:52:37;15;14;
43280;PMS5003;62175;49.416;8.690;2023-04-25T07:55:05;13;13;
43280;PMS5003;62175;49.416;8.690;2023-04-25T07:57:32;12;11;
43280;PMS5003;62175;49.416;8.690;2023-04-25T07:59:59;12;11;
43280;PMS5003;62175;49.416;8.690;2023-04-25T08:02:26;13;13;
43280;PMS5003;62175;49.416;8.690;2023-04-25T08:04:53;12;10;
43280;PMS5003;62175;49.416;8.690;2023-04-25T08:07:20;15;13;
43280;PMS5003;62175;49.416;8.690;2023-04-25T08:09:48;13;13;
43280;PMS5003;62175;49.416;8.690;2023-04-25T08:12:15;11;10;
43280;PMS5003;62175;49.416;8.690;2023-04-25T08:14:42;17;15;
43280;PMS5003;62175;49.416;8.690;2023-04-25T08:17:10;13;11;
43280;PMS5003;62175;49.416;8.690;2023-04-25T08:19:36;16;14;
43280;PMS5003;62175;49.416;8.690;2023-04-25T08:22:04;14;13;
43280;PMS5003;62175;49.416;8.690;2023-04-25T08:24:31;14;11;
43280;PMS5003;62175;49.416;8.690;2023-04-25T08:26:58;15;13;
43280;PMS5003;62175;49.416;8.690;2023-04-25T08:29:25;12;11;
43280;PMS5003;62175;49.416;8.690;2023-04-25T08:31:53;11;10;
43280;PMS5003;62175;49.416;8.690;2023-04-25T08:34:19;18;17;
43280;PMS5003;62175;49.416;8.690;2023-04-25T08:36:47;16;16;
43280;PMS5003;62175;49.416;8.690;2023-04-25T08:39:14;14;13;
43280;PMS5003;62175;49.416;8.690;2023-04-25T08:41:40;16;14;
43280;PMS5003;62175;49.416;8.690;2023-04-25T08:44:08;14;12;
43280;PMS5003;62175;49.416;8.690;2023-04-25T08:46:38;12;10;
43280;PMS5003;62175;49.416;8.690;2023-04-25T08:49:06;11;11;
43280;PMS5003;62175;49.416;8.690;2023-04-25T08:51:34;8;6;
43280;PMS5003;62175;49.416;8.690;2023-04-25T08:54:10;12;12;
43280;PMS5003;62175;49.416;8.690;2023-04-25T08:56:38;13;11;
43280;PMS5003;62175;49.416;8.690;2023-04-25T08:59:10;15;15;
43280;PMS5003;62175;49.416;8.690;2023-04-25T09:01:37;12;11;
43280;PMS5003;62175;49.416;8.690;2023-04-25T09:04:05;9;9;
43280;PMS5003;62175;49.416;8.690;2023-04-25T09:06:32;11;9;
43280;PMS5003;62175;49.416;8.690;2023-04-25T09:09:01;10;9;
43280;PMS5003;62175;49.416;8.690;2023-04-25T09:11:29;9;8;
43280;PMS5003;62175;49.416;8.690;2023-04-25T09:14:10;9;8;
43280;PMS5003;62175;49.416;8.690;2023-04-25T09:16:56;13;8;
43280;PMS5003;62175;49.416;8.690;2023-04-25T09:19:25;11;10;
43280;PMS5003;62175;49.416;8.690;2023-04-25T09:21:55;11;7;
43280;PMS5003;62175;49.416;8.690;2023-04-25T09:24:32;9;8;
43280;PMS5003;62175;49.416;8.690;2023-04-25T09:27:00;15;12;
43280;PMS5003;62175;49.416;8.690;2023-04-25T09:29:30;8;7;
43280;PMS5003;62175;49.416;8.690;2023-04-25T09:32:15;11;8;
43280;PMS5003;62175;49.416;8.690;2023-04-25T09:34:44;9;8;
43280;PMS5003;62175;49.416;8.690;2023-04-25T09:37:13;8;7;
43280;PMS5003;62175;49.416;8.690;2023-04-25T09:39:44;7;7;
43280;PMS5003;62175;49.416;8.690;2023-04-25T09:42:11;7;7;
43280;PMS5003;62175;49.416;8.690;2023-04-25T09:44:41;8;7;
43280;PMS5003;62175;49.416;8.690;2023-04-25T09:47:10;12;9;
43280;PMS5003;62175;49.416;8.690;2023-04-25T09:49:38;8;8;
43280;PMS5003;62175;49.416;8.690;2023-04-25T09:52:06;9;7;
43280;PMS5003;62175;49.416;8.690;2023-04-25T09:54:33;7;7;
43280;PMS5003;62175;49.416;8.690;2023-04-25T09:57:01;7;7;
43280;PMS5003;62175;49.416;8.690;2023-04-25T09:59:36;8;7;
43280;PMS5003;62175;49.416;8.690;2023-04-25T10:02:06;7;6;
43280;PMS5003;62175;49.416;8.690;2023-04-25T10:04:34;9;9;
43280;PMS5003;62175;49.416;8.690;2023-04-25T10:07:03;6;6;
43280;PMS5003;62175;49.416;8.690;2023-04-25T10:09:32;7;7;
43280;PMS5003;62175;49.416;8.690;2023-04-25T10:12:02;11;8;
43280;PMS5003;62175;49.416;8.690;2023-04-25T10:14:30;8;7;
43280;PMS5003;62175;49.416;8.690;2023-04-25T10:16:58;9;9;
43280;PMS5003;62175;49.416;8.690;2023-04-25T10:19:26;9;5;
43280;PMS5003;62175;49.416;8.690;2023-04-25T10:21:55;9;8;
43280;PMS5003;62175;49.416;8.690;2023-04-25T10:24:30;8;7;
43280;PMS5003;62175;49.416;8.690;2023-04-25T10:26:57;8;7;
43280;PMS5003;62175;49.416;8.690;2023-04-25T10:29:26;8;6;
43280;PMS5003;62175;49.416;8.690;2023-04-25T10:31:53;8;8;
43280;PMS5003;62175;49.416;8.690;2023-04-25T10:34:23;7;6;
43280;PMS5003;62175;49.416;8.690;2023-04-25T10:36:52;7;6;
43280;PMS5003;62175;49.416;8.690;2023-04-25T10:39:23;8;7;
43280;PMS5003;62175;49.416;8.690;2023-04-25T10:41:53;7;7;
43280;PMS5003;62175;49.416;8.690;2023-04-25T10:44:21;8;8;
43280;PMS5003;62175;49.416;8.690;2023-04-25T10:46:49;8;8;
43280;PMS5003;62175;49.416;8.690;2023-04-25T10:49:49;7;7;
43280;PMS5003;62175;49.416;8.690;2023-04-25T10:52:19;9;7;
43280;PMS5003;62175;49.416;8.690;2023-04-25T10:54:53;9;8;
43280;PMS5003;62175;49.416;8.690;2023-04-25T10:57:29;9;8;
43280;PMS5003;62175;49.416;8.690;2023-04-25T10:59:59;8;8;
43280;PMS5003;62175;49.416;8.690;2023-04-25T11:02:32;11;10;
43280;PMS5003;62175;49.416;8.690;2023-04-25T11:05:04;12;12;
43280;PMS5003;62175;49.416;8.690;2023-04-25T11:07:34;7;7;
43280;PMS5003;62175;49.416;8.690;2023-04-25T11:10:14;10;10;
43280;PMS5003;62175;49.416;8.690;2023-04-25T11:12:42;10;10;
43280;PMS5003;62175;49.416;8.690;2023-04-25T11:15:08;11;10;
43280;PMS5003;62175;49.416;8.690;2023-04-25T11:17:36;12;9;
43280;PMS5003;62175;49.416;8.690;2023-04-25T11:20:03;10;10;
43280;PMS5003;62175;49.416;8.690;2023-04-25T11:22:32;11;10;
43280;PMS5003;62175;49.416;8.690;2023-04-25T11:25:04;7;7;
43280;PMS5003;62175;49.416;8.690;2023-04-25T11:27:32;9;8;
43280;PMS5003;62175;49.416;8.690;2023-04-25T11:29:59;10;9;
43280;PMS5003;62175;49.416;8.690;2023-04-25T11:32:37;10;8;
43280;PMS5003;62175;49.416;8.690;2023-04-25T11:35:06;8;7;
43280;PMS5003;62175;49.416;8.690;2023-04-25T11:37:33;9;9;
43280;PMS5003;62175;49.416;8.690;2023-04-25T11:40:00;6;6;
43280;PMS5003;62175;49.416;8.690;2023-04-25T11:42:28;7;7;
43280;PMS5003;62175;49.416;8.690;2023-04-25T11:44:56;5;5;
43280;PMS5003;62175;49.416;8.690;2023-04-25T11:47:27;8;7;
43280;PMS5003;62175;49.416;8.690;2023-04-25T11:49:55;9;8;
43280;PMS5003;62175;49.416;8.690;2023-04-25T11:52:24;6;5;
43280;PMS5003;62175;49.416;8.690;2023-04-25T11:55:01;8;7;
43280;PMS5003;62175;49.416;8.690;2023-04-25T11:57:30;6;6;
43280;PMS5003;62175;49.416;8.690;2023-04-25T12:00:04;8;7;
43280;PMS5003;62175;49.416;8.690;2023-04-25T12:02:34;7;7;
43280;PMS5003;62175;49.416;8.690;2023-04-25T12:05:01;6;5;
43280;PMS5003;62175;49.416;8.690;2023-04-25T12:07:32;5;5;
43280;PMS5003;62175;49.416;8.690;2023-04-25T12:09:59;7;6;
43280;PMS5003;62175;49.416;8.690;2023-04-25T12:12:32;7;5;
43280;PMS5003;62175;49.416;8.690;2023-04-25T12:15:07;6;6;
43280;PMS5003;62175;49.416;8.690;2023-04-25T12:17:35;6;6;
43280;PMS5003;62175;49.416;8.690;2023-04-25T12:20:05;5;5;
43280;PMS5003;62175;49.416;8.690;2023-04-25T12:22:34;8;8;
43280;PMS5003;62175;49.416;8.690;2023-04-25T12:25:01;8;8;
43280;PMS5003;62175;49.416;8.690;2023-04-25T12:27:30;6;5;
43280;PMS5003;62175;49.416;8.690;2023-04-25T12:29:57;6;5;
43280;PMS5003;62175;49.416;8.690;2023-04-25T12:32:25;7;7;
43280;PMS5003;62175;49.416;8.690;2023-04-25T12:34:53;5;5;
43280;PMS5003;62175;49.416;8.690;2023-04-25T12:37:20;7;6;
43280;PMS5003;62175;49.416;8.690;2023-04-25T12:39:47;8;7;
43280;PMS5003;62175;49.416;8.690;2023-04-25T12:42:15;4;4;
43280;PMS5003;62175;49.416;8.690;2023-04-25T12:44:42;9;8;
43280;PMS5003;62175;49.416;8.690;2023-04-25T12:47:09;8;7;
43280;PMS5003;62175;49.416;8.690;2023-04-25T12:49:37;4;4;
43280;PMS5003;62175;49.416;8.690;2023-04-25T12:52:04;7;6;
43280;PMS5003;62175;49.416;8.690;2023-04-25T12:54:31;6;6;
43280;PMS5003;62175;49.416;8.690;2023-04-25T12:56:58;7;7;
43280;PMS5003;62175;49.416;8.690;2023-04-25T12:59:26;5;5;
43280;PMS5003;62175;49.416;8.690;2023-04-25T13:01:53;6;6;
43280;PMS5003;62175;49.416;8.690;2023-04-25T13:04:20;6;6;
43280;PMS5003;62175;49.416;8.690;2023-04-25T13:06:47;6;6;
43280;PMS5003;62175;49.416;8.690;2023-04-25T13:09:14;7;6;
43280;PMS5003;62175;49.416;8.690;2023-04-25T13:11:41;9;9;
43280;PMS5003;62175;49.416;8.690;2023-04-25T13:14:08;8;7;
43280;PMS5003;62175;49.416;8.690;2023-04-25T13:16:35;8;7;
43280;PMS5003;62175;49.416;8.690;2023-04-25T13:19:02;10;9;
43280;PMS5003;62175;49.416;8.690;2023-04-25T13:21:30;7;5;
43280;PMS5003;62175;49.416;8.690;2023-04-25T13:23:58;8;7;
43280;PMS5003;62175;49.416;8.690;2023-04-25T13:26:25;7;7;
43280;PMS5003;62175;49.416;8.690;2023-04-25T13:28:53;6;6;
43280;PMS5003;62175;49.416;8.690;2023-04-25T13:31:20;7;7;
43280;PMS5003;62175;49.416;8.690;2023-04-25T13:33:47;7;7;
43280;PMS5003;62175;49.416;8.690;2023-04-25T13:36:14;6;6;
43280;PMS5003;62175;49.416;8.690;2023-04-25T13:38:41;8;8;
43280;PMS5003;62175;49.416;8.690;2023-04-25T13:41:08;10;10;
43280;PMS5003;62175;49.416;8.690;2023-04-25T13:43:35;8;6;
43280;PMS5003;62175;49.416;8.690;2023-04-25T13:46:03;7;7;
43280;PMS5003;62175;49.416;8.690;2023-04-25T13:48:30;9;8;
43280;PMS5003;62175;49.416;8.690;2023-04-25T13:50:57;8;7;
43280;PMS5003;62175;49.416;8.690;2023-04-25T13:53:24;7;6;
43280;PMS5003;62175;49.416;8.690;2023-04-25T13:55:51;13;12;
43280;PMS5003;62175;49.416;8.690;2023-04-25T13:58:19;10;9;
43280;PMS5003;62175;49.416;8.690;2023-04-25T14:00:46;9;8;
43280;PMS5003;62175;49.416;8.690;2023-04-25T14:03:13;9;9;
43280;PMS5003;62175;49.416;8.690;2023-04-25T14:05:40;10;9;
43280;PMS5003;62175;49.416;8.690;2023-04-25T14:08:08;9;7;
43280;PMS5003;62175;49.416;8.690;2023-04-25T14:10:35;8;7;
43280;PMS5003;62175;49.416;8.690;2023-04-25T14:13:04;8;8;
43280;PMS5003;62175;49.416;8.690;2023-04-25T14:15:31;7;7;
43280;PMS5003;62175;49.416;8.690;2023-04-25T14:17:59;7;7;
43280;PMS5003;62175;49.416;8.690;2023-04-25T14:20:26;11;11;
43280;PMS5003;62175;49.416;8.690;2023-04-25T14:22:54;8;7;
43280;PMS5003;62175;49.416;8.690;2023-04-25T14:25:21;8;7;
43280;PMS5003;62175;49.416;8.690;2023-04-25T14:27:48;8;8;
43280;PMS5003;62175;49.416;8.690;2023-04-25T14:30:16;10;8;
43280;PMS5003;62175;49.416;8.690;2023-04-25T14:32:44;9;8;
43280;PMS5003;62175;49.416;8.690;2023-04-25T14:35:11;8;7;
43280;PMS5003;62175;49.416;8.690;2023-04-25T14:37:39;7;7;
43280;PMS5003;62175;49.416;8.690;2023-04-25T14:40:07;8;8;
43280;PMS5003;62175;49.416;8.690;2023-04-25T14:42:35;7;7;
43280;PMS5003;62175;49.416;8.690;2023-04-25T14:45:02;8;8;
43280;PMS5003;62175;49.416;8.690;2023-04-25T14:47:31;10;6;
43280;PMS5003;62175;49.416;8.690;2023-04-25T14:49:58;13;12;
43280;PMS5003;62175;49.416;8.690;2023-04-25T14:52:26;8;7;
43280;PMS5003;62175;49.416;8.690;2023-04-25T14:54:53;9;7;
43280;PMS5003;62175;49.416;8.690;2023-04-25T14:57:20;9;9;
43280;PMS5003;62175;49.416;8.690;2023-04-25T14:59:47;7;7;
43280;PMS5003;62175;49.416;8.690;2023-04-25T15:02:14;7;7;
43280;PMS5003;62175;49.416;8.690;2023-04-25T15:04:41;9;9;
43280;PMS5003;62175;49.416;8.690;2023-04-25T15:07:08;13;10;
43280;PMS5003;62175;49.416;8.690;2023-04-25T15:09:36;9;9;
43280;PMS5003;62175;49.416;8.690;2023-04-25T15:12:03;7;7;
43280;PMS5003;62175;49.416;8.690;2023-04-25T15:14:30;14;10;
43280;PMS5003;62175;49.416;8.690;2023-04-25T15:16:57;8;7;
43280;PMS5003;62175;49.416;8.690;2023-04-25T15:19:24;8;7;
43280;PMS5003;62175;49.416;8.690;2023-04-25T15:21:52;9;9;
43280;PMS5003;62175;49.416;8.690;2023-04-25T15:24:19;9;9;
43280;PMS5003;62175;49.416;8.690;2023-04-25T15:26:46;7;6;
43280;PMS5003;62175;49.416;8.690;2023-04-25T15:29:13;8;8;
43280;PMS5003;62175;49.416;8.690;2023-04-25T15:31:40;10;8;
43280;PMS5003;62175;49.416;8.690;2023-04-25T15:34:07;10;9;
43280;PMS5003;62175;49.416;8.690;2023-04-25T15:36:34;7;6;
43280;PMS5003;62175;49.416;8.690;2023-04-25T15:39:07;11;9;
43280;PMS5003;62175;49.416;8.690;2023-04-25T15:41:35;10;10;
43280;PMS5003;62175;49.416;8.690;2023-04-25T15:44:02;9;9;
43280;PMS5003;62175;49.416;8.690;2023-04-25T15:46:30;7;7;
43280;PMS5003;62175;49.416;8.690;2023-04-25T15:48:57;11;9;
43280;PMS5003;62175;49.416;8.690;2023-04-25T15:51:24;8;8;
43280;PMS5003;62175;49.416;8.690;2023-04-25T15:53:51;8;7;
43280;PMS5003;62175;49.416;8.690;2023-04-25T15:56:18;10;8;
43280;PMS5003;62175;49.416;8.690;2023-04-25T15:58:46;8;7;
43280;PMS5003;62175;49.416;8.690;2023-04-25T16:01:13;8;8;
43280;PMS5003;62175;49.416;8.690;2023-04-25T16:03:40;11;10;
43280;PMS5003;62175;49.416;8.690;2023-04-25T16:06:07;9;9;
43280;PMS5003;62175;49.416;8.690;2023-04-25T16:08:34;8;8;
43280;PMS5003;62175;49.416;8.690;2023-04-25T16:11:01;10;9;
43280;PMS5003;62175;49.416;8.690;2023-04-25T16:13:28;6;6;
43280;PMS5003;62175;49.416;8.690;2023-04-25T16:15:55;9;9;
43280;PMS5003;62175;49.416;8.690;2023-04-25T16:18:22;9;8;
43280;PMS5003;62175;49.416;8.690;2023-04-25T16:20:49;9;7;
43280;PMS5003;62175;49.416;8.690;2023-04-25T16:23:17;7;7;
43280;PMS5003;62175;49.416;8.690;2023-04-25T16:25:44;8;7;
43280;PMS5003;62175;49.416;8.690;2023-04-25T16:28:11;7;7;
43280;PMS5003;62175;49.416;8.690;2023-04-25T16:30:38;9;9;
43280;PMS5003;62175;49.416;8.690;2023-04-25T16:33:05;9;9;
43280;PMS5003;62175;49.416;8.690;2023-04-25T16:35:32;8;8;
43280;PMS5003;62175;49.416;8.690;2023-04-25T16:38:00;9;8;
43280;PMS5003;62175;49.416;8.690;2023-04-25T16:40:27;11;10;